Time;durP1;ratioP1;P1;durP2;ratioP2;P2;SDS_P1;SDS_P2;PMS_P1;PMS_P2;Temp;Humidity;BMP_temperature;BMP_pressure;BME280_temperature;BME280_humidity;BME280_pressure;Samples;Min_cycle;Max_cycle;Signal;HPM_P1;HPM_P2
2022/05/22 00:01:45;;;;;;;9.40;5.35;;;;;;;-141.50;100.00;63355.56;5080193;28;20094;-80
2022/05/22 00:04:12;;;;;;;10.30;5.30;;;;;;;-141.50;100.00;63355.56;5075188;28;20055;-81
2022/05/22 00:06:39;;;;;;;11.70;5.68;;;;;;;-141.50;100.00;63355.56;5078820;28;20083;-84
2022/05/22 00:09:05;;;;;;;12.20;5.47;;;;;;;-141.50;100.00;63355.56;5077757;28;20097;-82
2022/05/22 00:11:32;;;;;;;14.57;5.60;;;;;;;-141.50;100.00;63355.56;5090590;28;20116;-81
2022/05/22 00:13:59;;;;;;;11.68;5.03;;;;;;;-141.50;100.00;63355.56;5095567;28;20086;-83
2022/05/22 00:16:37;;;;;;;13.48;5.80;;;;;;;-141.50;100.00;63355.56;5095799;28;20079;-84
2022/05/22 00:19:06;;;;;;;13.52;5.90;;;;;;;-141.50;100.00;63355.56;5077672;28;20071;-82
2022/05/22 00:21:33;;;;;;;11.63;6.32;;;;;;;-141.50;100.00;63355.56;5079217;28;20133;-82
2022/05/22 00:24:03;;;;;;;13.52;5.88;;;;;;;-141.50;100.00;63355.56;5096190;28;20076;-84
2022/05/22 00:26:34;;;;;;;13.80;6.38;;;;;;;-141.50;100.00;63355.56;5078413;28;20048;-83
2022/05/22 00:29:00;;;;;;;10.10;5.82;;;;;;;-141.50;100.00;63355.56;5096247;28;20052;-83
2022/05/22 00:31:27;;;;;;;11.45;5.63;;;;;;;-141.50;100.00;63355.56;5077027;28;20075;-84
2022/05/22 00:33:54;;;;;;;14.25;5.75;;;;;;;-141.50;100.00;63355.56;5094532;28;20112;-82
2022/05/22 00:36:21;;;;;;;14.60;6.05;;;;;;;-141.50;100.00;63355.56;5094852;28;20082;-83
2022/05/22 00:38:47;;;;;;;10.82;5.72;;;;;;;-141.50;100.00;63355.56;5102100;28;20063;-79
2022/05/22 00:41:15;;;;;;;10.52;5.85;;;;;;;-141.50;100.00;63355.56;5081946;28;20599;-82
2022/05/22 00:43:51;;;;;;;10.30;5.82;;;;;;;-141.50;100.00;63355.56;5096052;28;20060;-81
2022/05/22 00:46:20;;;;;;;13.30;6.38;;;;;;;-141.50;100.00;63355.56;5095098;28;20534;-82
2022/05/22 00:48:55;;;;;;;13.15;6.50;;;;;;;-141.50;100.00;63355.56;5095210;28;20052;-80
2022/05/22 00:51:31;;;;;;;10.70;6.05;;;;;;;-141.50;100.00;63355.56;5097986;28;21279;-82
2022/05/22 00:54:00;;;;;;;;;;;;;;;-141.50;100.00;63355.56;5092491;28;20052;-83
2022/05/22 00:56:35;;;;;;;9.75;5.95;;;;;;;-141.50;100.00;63355.56;5113787;28;19919;-83
2022/05/22 00:59:15;;;;;;;10.73;5.87;;;;;;;-141.50;100.00;63355.56;5091687;28;20078;-82
2022/05/22 01:01:42;;;;;;;14.15;5.70;;;;;;;-141.50;100.00;63355.56;5110782;28;20433;-82
2022/05/22 01:04:20;;;;;;;14.77;6.57;;;;;;;-141.50;100.00;63355.56;5093158;28;20055;-80
2022/05/22 01:06:47;;;;;;;12.77;6.20;;;;;;;-141.50;100.00;63355.56;5094469;28;20122;-81
2022/05/22 01:09:13;;;;;;;14.50;6.30;;;;;;;-141.50;100.00;63355.56;5111865;28;20047;-82
2022/05/22 01:11:40;;;;;;;15.73;6.65;;;;;;;-141.50;100.00;63355.56;5111287;28;20055;-79
2022/05/22 01:14:10;;;;;;;14.10;6.82;;;;;;;-141.50;100.00;63355.56;5093759;28;20607;-81
2022/05/22 01:16:37;;;;;;;10.68;6.65;;;;;;;-141.50;100.00;63355.56;5115858;28;20051;-82
2022/05/22 01:19:16;;;;;;;12.77;7.00;;;;;;;-141.50;100.00;63355.56;5115071;28;20122;-81
2022/05/22 01:21:59;;;;;;;11.38;6.60;;;;;;;-141.50;100.00;63355.56;5115558;28;20510;-82
2022/05/22 01:24:27;;;;;;;13.45;6.50;;;;;;;-141.50;100.00;63355.56;5114762;28;20075;-82
2022/05/22 01:26:56;;;;;;;10.20;6.30;;;;;;;-141.50;100.00;63355.56;5096469;28;20696;-83
2022/05/22 01:29:23;;;;;;;16.20;6.93;;;;;;;-141.50;100.00;63355.56;5108652;28;20048;-82
2022/05/22 01:31:51;;;;;;;11.32;6.10;;;;;;;-141.50;100.00;63355.56;5090494;28;20047;-81
2022/05/22 01:34:19;;;;;;;10.55;5.93;;;;;;;-141.50;100.00;63355.56;5098075;28;20111;-82
2022/05/22 01:36:48;;;;;;;14.27;6.60;;;;;;;-141.50;100.00;63355.56;5116589;28;20141;-81
2022/05/22 01:39:15;;;;;;;18.48;6.90;;;;;;;-141.50;100.00;63355.56;5084163;28;20049;-84
2022/05/22 01:41:41;;;;;;;13.20;6.97;;;;;;;-141.50;100.00;63355.56;5080002;28;20044;-84
2022/05/22 01:44:08;;;;;;;15.43;7.80;;;;;;;-141.50;100.00;63355.56;5082713;28;20126;-83
2022/05/22 01:46:34;;;;;;;13.50;6.93;;;;;;;-141.50;100.00;63355.56;5085300;28;20075;-80
2022/05/22 01:49:02;;;;;;;13.25;7.68;;;;;;;-141.50;100.00;63355.56;5097880;28;20028;-79
2022/05/22 01:51:33;;;;;;;13.02;7.85;;;;;;;-141.50;100.00;63355.56;5098197;28;20091;-81
2022/05/22 01:54:01;;;;;;;17.15;7.78;;;;;;;-141.50;100.00;63355.56;5095135;28;20074;-81
2022/05/22 01:56:28;;;;;;;13.02;7.78;;;;;;;-141.50;100.00;63355.56;5082620;28;20051;-82
2022/05/22 01:58:55;;;;;;;20.27;8.00;;;;;;;-141.50;100.00;63355.56;5100599;28;20102;-82
2022/05/22 02:01:21;;;;;;;17.23;7.45;;;;;;;-141.50;100.00;63355.56;5100774;28;20153;-83
2022/05/22 02:03:48;;;;;;;14.13;7.18;;;;;;;-141.50;100.00;63355.56;5099123;28;20105;-82
2022/05/22 02:06:15;;;;;;;15.68;7.40;;;;;;;-141.50;100.00;63355.56;5099380;28;20052;-83
2022/05/22 02:08:42;;;;;;;12.82;6.47;;;;;;;-141.50;100.00;63355.56;5099432;28;20123;-84
2022/05/22 02:11:08;;;;;;;18.23;7.28;;;;;;;-141.50;100.00;63355.56;5099094;28;20080;-84
2022/05/22 02:13:38;;;;;;;18.23;7.47;;;;;;;-141.50;100.00;63355.56;5099523;28;20083;-84
2022/05/22 02:16:08;;;;;;;20.02;7.57;;;;;;;-141.50;100.00;63355.56;5098227;28;20079;-83
2022/05/22 02:18:35;;;;;;;11.43;7.05;;;;;;;-141.50;100.00;63355.56;5100603;28;20139;-84
2022/05/22 02:21:02;;;;;;;14.30;7.10;;;;;;;-141.50;100.00;63355.56;5098401;28;20072;-83
2022/05/22 02:23:31;;;;;;;17.92;7.55;;;;;;;-141.50;100.00;63355.56;5080640;28;20109;-82
2022/05/22 02:25:58;;;;;;;22.42;7.78;;;;;;;-141.50;100.00;63355.56;5080258;28;20262;-84
2022/05/22 02:28:27;;;;;;;21.98;8.20;;;;;;;-141.50;100.00;63355.56;5098491;28;20072;-81
2022/05/22 02:30:58;;;;;;;17.20;7.38;;;;;;;-141.50;100.00;63355.56;5098239;28;20079;-82
2022/05/22 02:33:25;;;;;;;17.35;8.95;;;;;;;-141.50;100.00;63355.56;5093596;28;20048;-81
2022/05/22 02:35:52;;;;;;;16.60;8.20;;;;;;;-141.50;100.00;63355.56;5093716;28;20075;-83
2022/05/22 02:38:19;;;;;;;19.25;9.10;;;;;;;-141.50;100.00;63355.56;5093645;28;20040;-82
2022/05/22 02:40:46;;;;;;;16.38;7.80;;;;;;;-141.50;100.00;63355.56;5075680;28;20072;-83
2022/05/22 02:43:12;;;;;;;16.08;8.13;;;;;;;-141.50;100.00;63355.56;5091842;28;20081;-79
2022/05/22 02:45:40;;;;;;;15.13;7.65;;;;;;;-141.50;100.00;63355.56;5098018;28;20169;-80
2022/05/22 02:48:08;;;;;;;17.15;7.07;;;;;;;-141.50;100.00;63355.56;5113724;28;20139;-83
2022/05/22 02:50:35;;;;;;;18.50;7.25;;;;;;;-141.50;100.00;63355.56;5119383;28;20027;-80
2022/05/22 02:53:02;;;;;;;18.90;8.32;;;;;;;-141.50;100.00;63355.56;5108734;28;20061;-80
2022/05/22 02:55:31;;;;;;;14.00;7.30;;;;;;;-141.50;100.00;63355.56;5116118;28;20103;-81
2022/05/22 02:57:58;;;;;;;19.27;7.80;;;;;;;-141.50;100.00;63355.56;5132206;28;20031;-81
2022/05/22 03:00:27;;;;;;;21.08;8.15;;;;;;;-141.50;100.00;63355.56;5108890;28;20075;-83
2022/05/22 03:02:57;;;;;;;23.92;9.40;;;;;;;-141.50;100.00;63355.56;5101694;28;20067;-82
2022/05/22 03:05:26;;;;;;;19.83;9.52;;;;;;;-141.50;100.00;63355.56;5120072;28;20087;-84
2022/05/22 03:07:53;;;;;;;18.10;9.23;;;;;;;-141.50;100.00;63355.56;5119040;28;20078;-84
2022/05/22 03:10:20;;;;;;;19.38;8.60;;;;;;;-141.50;100.00;63355.56;5101026;28;20422;-82
2022/05/22 03:12:47;;;;;;;20.00;9.35;;;;;;;-141.50;100.00;63355.56;5119827;28;20051;-83
2022/05/22 03:15:14;;;;;;;19.65;9.65;;;;;;;-141.50;100.00;63355.56;5105430;28;20044;-84
2022/05/22 03:17:41;;;;;;;27.15;9.48;;;;;;;-141.50;100.00;63355.56;5119907;28;20043;-83
2022/05/22 03:20:09;;;;;;;21.65;10.45;;;;;;;-141.50;100.00;63355.56;5097665;28;20094;-81
2022/05/22 03:22:36;;;;;;;17.45;8.18;;;;;;;-141.50;100.00;63355.56;5093356;28;20219;-83
2022/05/22 03:25:05;;;;;;;19.30;8.07;;;;;;;-141.50;100.00;63355.56;5113440;28;20108;-82
2022/05/22 03:27:31;;;;;;;15.02;7.95;;;;;;;-141.50;100.00;63355.56;5113579;28;20071;-81
2022/05/22 03:29:58;;;;;;;16.10;8.25;;;;;;;-141.50;100.00;63355.56;5095786;28;20726;-80
2022/05/22 03:32:26;;;;;;;16.85;8.45;;;;;;;-141.50;100.00;63355.56;5095934;28;20083;-81
2022/05/22 03:34:55;;;;;;;15.13;7.03;;;;;;;-141.50;100.00;63355.56;5097078;28;20044;-80
2022/05/22 03:37:24;;;;;;;14.35;7.72;;;;;;;-141.50;100.00;63355.56;5115211;28;20058;-81
2022/05/22 03:39:52;;;;;;;18.50;8.15;;;;;;;-141.50;100.00;63355.56;5115545;28;20051;-81
2022/05/22 03:42:19;;;;;;;16.90;8.70;;;;;;;-141.50;100.00;63355.56;5093561;28;20101;-80
2022/05/22 03:44:46;;;;;;;16.65;8.18;;;;;;;-141.50;100.00;63355.56;5093798;28;20044;-82
2022/05/22 03:47:12;;;;;;;14.82;8.27;;;;;;;-141.50;100.00;63355.56;5112903;28;20126;-81
2022/05/22 03:49:45;;;;;;;23.52;10.13;;;;;;;-141.50;100.00;63355.56;5117063;28;20058;-81
2022/05/22 03:52:11;;;;;;;18.25;9.13;;;;;;;-141.50;100.00;63355.56;5085535;28;20134;-81
2022/05/22 03:54:38;;;;;;;17.70;8.40;;;;;;;-141.50;100.00;63355.56;5097708;28;20047;-81
2022/05/22 03:57:05;;;;;;;13.68;8.05;;;;;;;-141.50;100.00;63355.56;5115849;28;20075;-82
2022/05/22 03:59:32;;;;;;;18.00;8.52;;;;;;;-141.50;100.00;63355.56;5097458;28;20071;-80
2022/05/22 04:01:58;;;;;;;19.77;9.15;;;;;;;-141.50;100.00;63355.56;5117377;28;20475;-82
2022/05/22 04:04:28;;;;;;;13.93;8.48;;;;;;;-141.50;100.00;63355.56;5115871;28;20077;-83
2022/05/22 04:06:54;;;;;;;12.40;8.30;;;;;;;-141.50;100.00;63355.56;5097681;28;20086;-82
2022/05/22 04:09:21;;;;;;;16.63;8.98;;;;;;;-141.50;100.00;63355.56;5115601;28;20154;-82
2022/05/22 04:11:48;;;;;;;20.52;8.60;;;;;;;-141.50;100.00;63355.56;5111408;28;20150;-82
2022/05/22 04:14:18;;;;;;;17.42;8.90;;;;;;;-141.50;100.00;63355.56;5092851;28;20083;-82
2022/05/22 04:16:49;;;;;;;17.17;8.85;;;;;;;-141.50;100.00;63355.56;5093557;28;20051;-80
2022/05/22 04:19:15;;;;;;;17.08;8.88;;;;;;;-141.50;100.00;63355.56;5112385;28;20127;-82
2022/05/22 04:21:43;;;;;;;19.25;9.43;;;;;;;-141.50;100.00;63355.56;5097944;28;20075;-85
2022/05/22 04:26:55;;;;;;;18.58;8.48;;;;;;;-141.50;100.00;63355.56;5114630;28;20101;-85
2022/05/22 04:29:31;;;;;;;16.38;7.85;;;;;;;-141.50;100.00;63355.56;5117168;28;20482;-83
2022/05/22 04:31:57;;;;;;;20.65;8.65;;;;;;;-141.50;100.00;63355.56;5098244;28;20083;-84
2022/05/22 04:34:24;;;;;;;17.10;8.25;;;;;;;-141.50;100.00;63355.56;5096600;28;20084;-86
2022/05/22 04:36:50;;;;;;;19.27;8.40;;;;;;;-141.50;100.00;63355.56;5097231;28;20074;-85
2022/05/22 04:39:17;;;;;;;23.45;7.38;;;;;;;-141.50;100.00;63355.56;5111865;28;20079;-82
2022/05/22 04:41:46;;;;;;;14.85;7.15;;;;;;;-141.50;100.00;63355.56;5110992;28;20393;-81
2022/05/22 04:44:13;;;;;;;19.13;7.53;;;;;;;-141.50;100.00;63355.56;5097641;28;20047;-85
2022/05/22 04:46:39;;;;;;;22.13;7.40;;;;;;;-141.50;100.00;63355.56;5095218;28;20054;-83
2022/05/22 04:49:06;;;;;;;14.75;7.55;;;;;;;-141.50;100.00;63355.56;5094343;28;20043;-87
2022/05/22 04:51:33;;;;;;;14.05;7.07;;;;;;;-141.50;100.00;63355.56;5081903;28;20043;-83
2022/05/22 04:53:59;;;;;;;15.98;7.30;;;;;;;-141.50;100.00;63355.56;5077412;28;20055;-85
2022/05/22 04:56:26;;;;;;;17.38;7.03;;;;;;;-141.50;100.00;63355.56;5071346;28;20063;-85
2022/05/22 04:58:53;;;;;;;18.88;6.50;;;;;;;-141.50;100.00;63355.56;5072347;28;20123;-85
2022/05/22 05:01:19;;;;;;;15.45;6.45;;;;;;;-141.50;100.00;63355.56;5091074;28;20139;-87
2022/05/22 05:03:46;;;;;;;12.35;6.55;;;;;;;-141.50;100.00;63355.56;5090344;28;20425;-85
2022/05/22 05:06:15;;;;;;;17.83;6.68;;;;;;;-141.50;100.00;63355.56;5066633;28;20056;-87
2022/05/22 05:08:42;;;;;;;14.95;6.88;;;;;;;-141.50;100.00;63355.56;5080214;28;20060;-81
2022/05/22 05:11:12;;;;;;;14.25;7.03;;;;;;;-141.50;100.00;63355.56;5062661;28;20097;-83
2022/05/22 05:13:39;;;;;;;14.02;6.47;;;;;;;-141.50;100.00;63355.56;5075396;28;20048;-85
2022/05/22 05:16:12;;;;;;;20.33;7.00;;;;;;;-141.50;100.00;63355.56;5072106;28;20057;-81
2022/05/22 05:18:39;;;;;;;17.55;7.00;;;;;;;-141.50;100.00;63355.56;5072565;28;20044;-82
2022/05/22 05:21:10;;;;;;;19.17;6.85;;;;;;;-141.50;100.00;63355.56;5074741;28;20267;-84
2022/05/22 05:23:38;;;;;;;16.80;6.63;;;;;;;-141.50;100.00;63355.56;5058539;28;20159;-85
2022/05/22 05:26:04;;;;;;;12.98;6.05;;;;;;;-141.50;100.00;63355.56;5056281;28;20102;-84
2022/05/22 05:28:32;;;;;;;17.08;6.38;;;;;;;-141.50;100.00;63355.56;5073426;28;20106;-85
2022/05/22 05:31:03;;;;;;;17.30;6.60;;;;;;;-141.50;100.00;63355.56;5073988;28;20321;-82
2022/05/22 05:33:32;;;;;;;16.80;6.35;;;;;;;-141.50;100.00;63355.56;5072961;28;20056;-82
2022/05/22 05:35:59;;;;;;;17.60;6.68;;;;;;;-141.50;100.00;63355.56;5061112;28;20043;-88
2022/05/22 05:38:26;;;;;;;22.23;6.78;;;;;;;-141.50;100.00;63355.56;5072114;28;20074;-81
2022/05/22 05:41:13;;;;;;;15.13;6.97;;;;;;;-141.50;100.00;63355.56;5091789;28;20409;-80
2022/05/22 05:43:39;;;;;;;15.30;7.28;;;;;;;-141.50;100.00;63355.56;5072344;28;20083;-79
2022/05/22 05:46:10;;;;;;;13.95;6.38;;;;;;;-141.50;100.00;63355.56;5069184;28;20090;-79
2022/05/22 05:48:41;;;;;;;14.75;7.00;;;;;;;-141.50;100.00;63355.56;5089546;28;20036;-80
2022/05/22 05:51:07;;;;;;;17.58;6.63;;;;;;;-141.50;100.00;63355.56;5066617;28;20074;-80
2022/05/22 05:53:34;;;;;;;19.00;7.35;;;;;;;-141.50;100.00;63355.56;5087102;28;20664;-81
2022/05/22 05:56:04;;;;;;;15.60;6.60;;;;;;;-141.50;100.00;63355.56;5087026;28;20886;-81
2022/05/22 05:58:41;;;;;;;14.07;5.78;;;;;;;-141.50;100.00;63355.56;5080354;28;20053;-79
2022/05/22 06:01:10;;;;;;;13.80;5.30;;;;;;;-141.50;100.00;63355.56;5078584;28;20573;-80
2022/05/22 06:03:37;;;;;;;17.20;6.00;;;;;;;-141.50;100.00;63355.56;5079287;28;20116;-78
2022/05/22 06:06:08;;;;;;;14.93;5.72;;;;;;;-141.50;100.00;63355.56;5061228;28;20052;-79
2022/05/22 06:08:38;;;;;;;16.10;5.82;;;;;;;-141.50;100.00;63355.56;5081270;28;20177;-77
2022/05/22 06:11:04;;;;;;;14.55;5.40;;;;;;;-141.50;100.00;63355.56;5087551;28;20050;-78
2022/05/22 06:13:31;;;;;;;19.08;6.18;;;;;;;-141.50;100.00;63355.56;5087790;28;20071;-77
2022/05/22 06:15:58;;;;;;;22.02;6.15;;;;;;;-141.50;100.00;63355.56;5083668;28;20052;-81
2022/05/22 06:18:25;;;;;;;14.02;5.25;;;;;;;-141.50;100.00;63355.56;5063920;28;20134;-83
2022/05/22 06:20:51;;;;;;;12.57;5.88;;;;;;;-141.50;100.00;63355.56;5078931;28;20139;-82
2022/05/22 06:23:18;;;;;;;15.43;5.82;;;;;;;-141.50;100.00;63355.56;5063108;28;20049;-84
2022/05/22 06:25:47;;;;;;;17.42;5.95;;;;;;;-141.50;100.00;63355.56;5068691;28;20104;-82
2022/05/22 06:28:15;;;;;;;16.35;5.63;;;;;;;-141.50;100.00;63355.56;5063907;28;20055;-87
2022/05/22 06:30:42;;;;;;;13.25;4.97;;;;;;;-141.50;100.00;63355.56;5065098;28;20580;-80
2022/05/22 06:33:16;;;;;;;13.70;5.13;;;;;;;-141.50;100.00;63355.56;5061114;28;20055;-80
2022/05/22 06:35:46;;;;;;;12.45;4.60;;;;;;;-141.50;100.00;63355.56;5058228;28;20132;-80
2022/05/22 06:41:09;;;;;;;13.45;4.25;;;;;;;-141.50;100.00;63355.56;5074651;28;20145;-85
2022/05/22 06:43:36;;;;;;;15.68;4.78;;;;;;;-141.50;100.00;63355.56;5070501;28;20463;-82
2022/05/22 06:46:04;;;;;;;11.90;4.82;;;;;;;-141.50;100.00;63355.56;5055555;28;20135;-84
2022/05/22 06:48:31;;;;;;;13.30;4.75;;;;;;;-141.50;100.00;63355.56;5082071;28;20111;-84
2022/05/22 06:50:57;;;;;;;14.00;5.03;;;;;;;-141.50;100.00;63355.56;5105697;28;20070;-80
2022/05/22 06:53:24;;;;;;;12.18;4.50;;;;;;;-141.50;100.00;63355.56;5084464;28;20106;-79
2022/05/22 06:55:51;;;;;;;10.07;4.60;;;;;;;-141.50;100.00;63355.56;5095120;28;20052;-83
2022/05/22 06:58:17;;;;;;;13.85;4.95;;;;;;;-141.50;100.00;63355.56;5091511;28;20036;-77
2022/05/22 07:00:44;;;;;;;13.00;4.88;;;;;;;-141.50;100.00;63355.56;5110925;28;20048;-77
2022/05/22 07:03:13;;;;;;;12.77;4.68;;;;;;;-141.50;100.00;63355.56;5095692;28;20071;-79
2022/05/22 07:05:40;;;;;;;10.68;4.95;;;;;;;-141.50;100.00;63355.56;5118268;28;20093;-82
2022/05/22 07:08:06;;;;;;;15.65;4.90;;;;;;;-141.50;100.00;63355.56;5097817;28;20199;-84
2022/05/22 07:13:18;;;;;;;15.80;4.57;;;;;;;-141.50;100.00;63355.56;5074383;28;20052;-81
2022/05/22 07:15:46;;;;;;;15.15;4.32;;;;;;;-141.50;100.00;63355.56;5086555;28;20091;-80
2022/05/22 07:18:33;;;;;;;14.48;3.15;;;;;;;-141.50;100.00;63355.56;5089923;28;20059;-83
2022/05/22 07:21:00;;;;;;;12.63;3.22;;;;;;;-141.50;100.00;63355.56;5078386;28;20075;-82
2022/05/22 07:23:29;;;;;;;10.65;4.00;;;;;;;-141.50;100.00;63355.56;5058132;28;20084;-81
2022/05/22 07:25:56;;;;;;;14.05;4.05;;;;;;;-141.50;100.00;63355.56;5088774;28;20075;-81
2022/05/22 07:28:22;;;;;;;12.18;4.07;;;;;;;-141.50;100.00;63355.56;5094274;28;20487;-79
2022/05/22 07:30:50;;;;;;;12.70;3.85;;;;;;;-141.50;100.00;63355.56;5099552;28;20112;-76
2022/05/22 07:33:17;;;;;;;12.25;3.78;;;;;;;-141.50;100.00;63355.56;5090042;28;20059;-80
2022/05/22 07:35:57;;;;;;;10.75;3.78;;;;;;;-141.50;100.00;63355.56;5093014;28;20094;-81
2022/05/22 07:38:24;;;;;;;12.63;3.70;;;;;;;-141.50;100.00;63355.56;5066021;28;20060;-80
2022/05/22 07:40:52;;;;;;;13.77;3.78;;;;;;;-141.50;100.00;63355.56;5073461;28;20056;-83
2022/05/22 07:43:19;;;;;;;10.05;3.60;;;;;;;-141.50;100.00;63355.56;5056150;28;20083;-82
2022/05/22 07:45:49;;;;;;;11.00;3.60;;;;;;;-141.50;100.00;63355.56;5071322;28;20631;-85
2022/05/22 07:48:16;;;;;;;12.15;3.88;;;;;;;-141.50;100.00;63355.56;5093337;28;20058;-85
2022/05/22 07:50:43;;;;;;;14.18;4.40;;;;;;;-141.50;100.00;63355.56;5090106;28;20195;-80
2022/05/22 07:53:10;;;;;;;13.23;4.25;;;;;;;-141.50;100.00;63355.56;5101106;28;20052;-82
2022/05/22 07:55:36;;;;;;;13.48;3.97;;;;;;;-141.50;100.00;63355.56;5067098;28;20079;-79
2022/05/22 07:58:03;;;;;;;11.95;4.15;;;;;;;-141.50;100.00;63355.56;5089800;28;20511;-85
2022/05/22 08:00:32;;;;;;;11.18;4.38;;;;;;;-141.50;100.00;63355.56;5092903;28;20044;-85
2022/05/22 08:02:59;;;;;;;13.73;3.95;;;;;;;-141.50;100.00;63355.56;5088742;28;20048;-78
2022/05/22 08:05:25;;;;;;;11.90;3.80;;;;;;;-141.50;100.00;63355.56;5067497;28;20074;-86
2022/05/22 08:07:52;;;;;;;11.48;4.47;;;;;;;-141.50;100.00;63355.56;5049726;28;20548;-84
2022/05/22 08:10:19;;;;;;;15.10;4.78;;;;;;;-141.50;100.00;63355.56;5062553;28;20095;-81
2022/05/22 08:12:48;;;;;;;11.50;4.07;;;;;;;-141.50;100.00;63355.56;5090810;28;20082;-83
2022/05/22 08:15:18;;;;;;;10.05;3.97;;;;;;;-141.50;100.00;63355.56;5062402;28;20128;-79
2022/05/22 08:17:45;;;;;;;10.50;4.10;;;;;;;-141.50;100.00;63355.56;5091759;28;20500;-82
2022/05/22 08:20:15;;;;;;;13.25;4.40;;;;;;;-141.50;100.00;63355.56;5090934;28;20084;-82
2022/05/22 08:22:45;;;;;;;15.48;4.40;;;;;;;-141.50;100.00;63355.56;5071164;28;20052;-81
2022/05/22 08:25:17;;;;;;;13.05;4.40;;;;;;;-141.50;100.00;63355.56;5069421;28;20087;-82
2022/05/22 08:27:46;;;;;;;11.77;4.50;;;;;;;-141.50;100.00;63355.56;5081792;28;20087;-85
2022/05/22 08:30:16;;;;;;;14.82;4.13;;;;;;;-141.50;100.00;63355.56;5052912;28;20052;-85
2022/05/22 08:32:44;;;;;;;9.82;3.70;;;;;;;-141.50;100.00;63355.56;5073718;28;20060;-82
2022/05/22 08:35:15;;;;;;;9.77;3.40;;;;;;;-141.50;100.00;63355.56;5094871;28;20080;-76
2022/05/22 08:37:43;;;;;;;10.32;3.72;;;;;;;-141.50;100.00;63355.56;5105855;28;20063;-77
2022/05/22 08:40:13;;;;;;;9.43;3.38;;;;;;;-141.50;100.00;63355.56;5068687;28;20044;-79
2022/05/22 08:42:47;;;;;;;11.57;3.53;;;;;;;-141.50;100.00;63355.56;5068533;28;20052;-80
2022/05/22 08:45:30;;;;;;;9.27;3.20;;;;;;;-141.50;100.00;63355.56;5103619;28;20059;-77
2022/05/22 08:48:07;;;;;;;10.50;3.03;;;;;;;-141.50;100.00;63355.56;5081772;28;20055;-83
2022/05/22 08:50:36;;;;;;;10.50;3.50;;;;;;;-141.50;100.00;63355.56;5099118;28;20036;-80
2022/05/22 08:53:02;;;;;;;12.05;3.20;;;;;;;-141.50;100.00;63355.56;5085700;28;20839;-79
2022/05/22 08:58:57;;;;;;;10.82;2.70;;;;;;;-141.50;100.00;63355.56;5083263;28;20112;-72
2022/05/22 09:01:43;;;;;;;6.50;2.45;;;;;;;-141.50;100.00;63355.56;5057319;28;20048;-81
2022/05/22 09:04:30;;;;;;;12.88;3.30;;;;;;;-141.50;100.00;63355.56;5053860;28;20487;-83
2022/05/22 09:07:38;;;;;;;10.65;3.03;;;;;;;-141.50;100.00;63355.56;5057417;28;20048;-80
2022/05/22 09:10:09;;;;;;;8.85;3.20;;;;;;;-141.50;100.00;63355.56;5095026;28;20082;-85
2022/05/22 09:12:59;;;;;;;9.80;2.80;;;;;;;-141.50;100.00;63355.56;5077559;28;20062;-82
2022/05/22 09:15:51;;;;;;;9.10;3.40;;;;;;;-141.50;100.00;63355.56;5094176;28;20056;-80
2022/05/22 09:18:36;;;;;;;9.93;3.72;;;;;;;-141.50;100.00;63355.56;5075942;28;20180;-78
2022/05/22 09:21:20;;;;;;;14.00;3.53;;;;;;;-141.50;100.00;63355.56;5082190;28;20052;-80
2022/05/22 09:23:56;;;;;;;13.38;3.45;;;;;;;-141.50;100.00;63355.56;5048640;28;20103;-81
2022/05/22 09:26:47;;;;;;;10.07;3.20;;;;;;;-141.50;100.00;63355.56;5068674;28;20130;-77
2022/05/22 09:29:37;;;;;;;10.43;2.97;;;;;;;-141.50;100.00;63355.56;5090250;28;20056;-80
2022/05/22 09:32:10;;;;;;;13.70;3.42;;;;;;;-141.50;100.00;63355.56;5068404;28;20444;-80
2022/05/22 09:34:53;;;;;;;9.02;3.05;;;;;;;-141.50;100.00;63355.56;5070277;28;20115;-79
2022/05/22 09:37:44;;;;;;;9.52;2.80;;;;;;;-141.50;100.00;63355.56;5057317;28;20048;-80
2022/05/22 09:40:38;;;;;;;8.48;2.70;;;;;;;-141.50;100.00;63355.56;5049973;28;20143;-86
2022/05/22 09:43:23;;;;;;;9.38;2.75;;;;;;;-141.50;100.00;63355.56;5070638;28;20135;-80
2022/05/22 09:46:35;;;;;;;11.20;3.73;;;;;;;-141.50;100.00;63355.56;5072372;28;20086;-82
2022/05/22 09:49:22;;;;;;;12.50;3.45;;;;;;;-141.50;100.00;63355.56;4999455;28;20709;-82
2022/05/22 09:52:13;;;;;;;9.15;3.45;;;;;;;-141.50;100.00;63355.56;5080337;28;20048;-83
2022/05/22 09:55:02;;;;;;;6.38;2.92;;;;;;;-141.50;100.00;63355.56;5057034;28;20044;-81
2022/05/22 09:57:50;;;;;;;12.50;3.60;;;;;;;-141.50;100.00;63355.56;5066956;28;20102;-83
2022/05/22 10:00:27;;;;;;;9.57;3.35;;;;;;;-141.50;100.00;63355.56;5082591;28;20100;-82
2022/05/22 10:03:25;;;;;;;8.55;3.00;;;;;;;-141.50;100.00;63355.56;5083012;28;20395;-85
2022/05/22 10:05:52;;;;;;;8.50;2.83;;;;;;;-141.50;100.00;63355.56;5063907;28;20064;-79
2022/05/22 10:08:29;;;;;;;8.45;2.85;;;;;;;-141.50;100.00;63355.56;5063168;28;20412;-78
2022/05/22 10:11:01;;;;;;;5.60;2.33;;;;;;;-141.50;100.00;63355.56;5083349;28;20603;-82
2022/05/22 10:13:52;;;;;;;6.72;2.40;;;;;;;-141.50;100.00;63355.56;5084614;28;20062;-81
2022/05/22 10:16:37;;;;;;;11.90;2.80;;;;;;;-141.50;100.00;63355.56;5073571;28;20048;-82
2022/05/22 10:19:14;;;;;;;12.95;2.88;;;;;;;-141.50;100.00;63355.56;5078306;28;20528;-80
2022/05/22 10:22:06;;;;;;;5.78;2.38;;;;;;;-141.50;100.00;63355.56;5061475;28;20033;-82
2022/05/22 10:25:01;;;;;;;7.95;2.53;;;;;;;-141.50;100.00;63355.56;5067904;28;20139;-81
2022/05/22 10:27:46;;;;;;;9.73;2.83;;;;;;;-141.50;100.00;63355.56;5067202;28;20140;-80
2022/05/22 10:30:21;;;;;;;9.10;2.60;;;;;;;-141.50;100.00;63355.56;5099901;28;20097;-80
2022/05/22 10:32:59;;;;;;;6.10;2.83;;;;;;;-141.50;100.00;63355.56;5089974;28;20032;-79
2022/05/22 10:35:41;;;;;;;8.43;2.70;;;;;;;-141.50;100.00;63355.56;5070712;28;20689;-80
2022/05/22 10:38:32;;;;;;;9.27;2.85;;;;;;;-141.50;100.00;63355.56;5084181;28;20107;-79
2022/05/22 10:44:02;;;;;;;10.68;2.92;;;;;;;-141.50;100.00;63355.56;5084597;28;20056;-82
2022/05/22 10:46:28;;;;;;;9.35;2.65;;;;;;;-141.50;100.00;63355.56;5076375;28;20048;-79
2022/05/22 10:48:56;;;;;;;8.82;2.47;;;;;;;-141.50;100.00;63355.56;5074326;28;20044;-81
2022/05/22 10:51:25;;;;;;;8.02;2.97;;;;;;;-141.50;100.00;63355.56;5081920;28;20078;-79
2022/05/22 10:53:53;;;;;;;7.22;2.60;;;;;;;-141.50;100.00;63355.56;5104417;28;20108;-80
2022/05/22 10:56:27;;;;;;;7.80;2.80;;;;;;;-141.50;100.00;63355.56;5087210;28;20075;-80
2022/05/22 10:59:02;;;;;;;9.35;2.60;;;;;;;-141.50;100.00;63355.56;5089628;28;20056;-81
2022/05/22 11:01:40;;;;;;;9.57;2.90;;;;;;;-141.50;100.00;63355.56;5103653;28;20060;-80
2022/05/22 11:04:14;;;;;;;9.68;2.95;;;;;;;-141.50;100.00;63355.56;5088612;28;20121;-79
2022/05/22 11:06:59;;;;;;;8.17;3.17;;;;;;;-141.50;100.00;63355.56;5100199;28;20063;-76
2022/05/22 11:09:29;;;;;;;10.30;3.13;;;;;;;-141.50;100.00;63355.56;5097441;28;20297;-80
2022/05/22 11:12:10;;;;;;;10.57;3.70;;;;;;;-141.50;100.00;63355.56;5095949;28;20044;-82
2022/05/22 11:14:39;;;;;;;11.98;2.90;;;;;;;-141.50;100.00;63355.56;5079752;28;20106;-83
2022/05/22 11:17:08;;;;;;;7.40;3.33;;;;;;;-141.50;100.00;63355.56;5062223;28;20054;-80
2022/05/22 11:19:39;;;;;;;11.52;2.97;;;;;;;-141.50;100.00;63355.56;5076480;28;20110;-86
2022/05/22 11:22:15;;;;;;;7.25;2.33;;;;;;;-141.50;100.00;63355.56;5096009;28;20117;-82
2022/05/22 11:25:14;;;;;;;7.57;2.58;;;;;;;-141.50;100.00;63355.56;5094888;28;20131;-85
2022/05/22 11:28:09;;;;;;;5.93;2.35;;;;;;;-141.50;100.00;63355.56;5021787;28;20195;-79
2022/05/22 11:30:54;;;;;;;9.90;2.53;;;;;;;-141.50;100.00;63355.56;5079382;28;20100;-81
2022/05/22 11:33:37;;;;;;;6.65;2.40;;;;;;;-141.50;100.00;63355.56;5098759;28;20052;-79
2022/05/22 11:36:34;;;;;;;8.43;2.65;;;;;;;-141.50;100.00;63355.56;5078774;28;20075;-80